createdAt,value
2022-09-18T00:00:02.529Z,98.10
2022-09-18T00:01:41.280Z,98.30
2022-09-18T00:02:43.131Z,98.20
2022-09-18T00:03:46.860Z,98.30
2022-09-18T00:04:49.286Z,98.20
2022-09-18T00:05:51.108Z,98.20
2022-09-18T00:06:53.004Z,98.10
2022-09-18T00:07:54.850Z,98.20
2022-09-18T00:08:58.360Z,98.30
2022-09-18T00:10:00.181Z,98.40
2022-09-18T00:11:08.249Z,98.50
2022-09-18T00:12:10.304Z,98.60
2022-09-18T00:13:12.841Z,98.70
2022-09-18T00:14:17.882Z,98.60
2022-09-18T00:15:19.663Z,98.50
2022-09-18T00:16:23.149Z,98.40
2022-09-18T00:17:25.111Z,98.30
2022-09-18T00:18:27.009Z,98.40
2022-09-18T00:19:29.462Z,98.50
2022-09-18T00:20:33.785Z,98.60
2022-09-18T00:21:37.454Z,98.70
2022-09-18T00:22:40.766Z,98.70
2022-09-18T00:23:43.831Z,98.60
2022-09-18T00:24:45.622Z,98.50
2022-09-18T00:25:47.530Z,98.50
2022-09-18T00:26:49.949Z,98.40
2022-09-18T00:27:52.063Z,98.40
2022-09-18T00:28:55.153Z,98.50
2022-09-18T00:29:57.372Z,98.50
2022-09-18T00:31:07.429Z,98.50
2022-09-18T00:32:10.090Z,98.50
2022-09-18T00:33:11.838Z,98.40
2022-09-18T00:34:15.695Z,98.30
2022-09-18T00:35:17.619Z,98.30
2022-09-18T00:36:21.194Z,98.40
2022-09-18T00:37:23.104Z,98.50
2022-09-18T00:38:24.876Z,98.40
2022-09-18T00:39:26.669Z,98.40
2022-09-18T00:40:28.498Z,98.60
2022-09-18T00:41:34.316Z,98.60
2022-09-18T00:42:36.167Z,98.70
2022-09-18T00:43:39.025Z,98.70
2022-09-18T00:44:46.333Z,98.70
2022-09-18T00:45:57.444Z,99.10
2022-09-18T00:47:11.119Z,98.70
2022-09-18T00:48:12.953Z,98.50
2022-09-18T00:49:24.555Z,98.60
2022-09-18T00:50:27.765Z,99.00
2022-09-18T00:51:32.626Z,98.80
2022-09-18T00:52:47.848Z,98.80
2022-09-18T00:54:19.737Z,98.90
2022-09-18T00:55:26.564Z,98.80
2022-09-18T00:56:29.240Z,98.80
2022-09-18T00:57:33.940Z,98.70
2022-09-18T00:58:36.311Z,98.80
2022-09-18T00:59:41.718Z,98.80
2022-09-18T01:00:43.508Z,98.70
2022-09-18T01:01:45.378Z,98.70
2022-09-18T01:02:48.920Z,98.70
2022-09-18T01:03:50.963Z,98.70
2022-09-18T01:04:54.721Z,98.80
2022-09-18T01:06:15.837Z,98.80
2022-09-18T01:07:37.638Z,98.70
2022-09-18T01:09:25.194Z,98.70
2022-09-18T01:10:40.897Z,98.40
2022-09-18T01:12:01.084Z,98.50
2022-09-18T01:13:28.915Z,98.60
2022-09-18T01:14:44.643Z,99.00
2022-09-18T01:16:19.356Z,98.60
2022-09-18T01:18:03.127Z,98.60
2022-09-18T01:19:38.890Z,98.70
2022-09-18T01:21:10.257Z,98.80
2022-09-18T01:22:47.432Z,98.80
2022-09-18T01:24:33.548Z,98.80
2022-09-18T01:25:50.348Z,98.60
2022-09-18T01:27:07.068Z,98.60
2022-09-18T01:28:21.687Z,98.70
2022-09-18T01:29:54.276Z,98.70
2022-09-18T01:31:03.224Z,98.70
2022-09-18T01:32:21.117Z,98.90
2022-09-18T01:33:33.499Z,98.80
2022-09-18T01:34:47.252Z,98.70
2022-09-18T01:35:53.809Z,98.70
2022-09-18T01:37:06.537Z,98.80
2022-09-18T01:38:11.212Z,98.90
2022-09-18T01:39:27.864Z,98.90
2022-09-18T01:40:41.551Z,99.00
2022-09-18T01:41:50.784Z,98.90
2022-09-18T01:42:58.416Z,99.00
2022-09-18T01:44:05.760Z,99.10
2022-09-18T01:45:23.513Z,99.20
2022-09-18T01:46:26.767Z,99.20
2022-09-18T01:47:35.448Z,99.20
2022-09-18T01:48:44.145Z,99.20
2022-09-18T01:49:48.303Z,99.20
2022-09-18T01:50:55.828Z,99.20
2022-09-18T01:52:13.702Z,99.20
2022-09-18T01:53:24.339Z,99.40
2022-09-18T01:54:33.240Z,99.40
2022-09-18T01:55:38.460Z,99.40
2022-09-18T01:56:50.930Z,99.50
2022-09-18T01:58:01.494Z,99.40
2022-09-18T01:59:09.691Z,99.50
2022-09-18T02:00:22.369Z,99.60
2022-09-18T02:01:29.901Z,99.60
2022-09-18T02:02:39.576Z,99.60
2022-09-18T02:03:47.526Z,99.50
2022-09-18T02:04:55.383Z,99.60
2022-09-18T02:06:06.361Z,99.50
2022-09-18T02:07:14.263Z,99.50
2022-09-18T02:08:30.242Z,99.50
2022-09-18T02:09:35.356Z,99.50
2022-09-18T02:10:53.998Z,99.60
2022-09-18T02:11:58.791Z,99.60
2022-09-18T02:13:03.359Z,99.60
2022-09-18T02:14:11.085Z,99.60
2022-09-18T02:15:37.578Z,99.60
2022-09-18T02:16:49.100Z,99.60
2022-09-18T02:17:59.198Z,99.50
2022-09-18T02:19:18.633Z,99.30
2022-09-18T02:20:28.296Z,99.20
2022-09-18T02:21:32.021Z,99.20
2022-09-18T02:22:35.085Z,99.20
2022-09-18T02:23:39.376Z,99.20
2022-09-18T02:24:43.252Z,99.30
2022-09-18T02:25:57.644Z,99.50
2022-09-18T02:27:01.340Z,99.40
2022-09-18T02:28:07.087Z,99.50
2022-09-18T02:29:12.439Z,99.50
2022-09-18T02:30:14.823Z,99.40
2022-09-18T02:31:19.767Z,99.50
2022-09-18T02:32:22.127Z,99.60
2022-09-18T02:33:31.310Z,99.60
2022-09-18T02:34:33.809Z,99.70
2022-09-18T02:35:46.516Z,99.80
2022-09-18T02:36:57.615Z,99.70
2022-09-18T02:38:22.303Z,99.70
2022-09-18T02:39:59.064Z,99.70
2022-09-18T02:41:19.421Z,99.60
2022-09-18T02:42:48.906Z,99.60
2022-09-18T02:43:59.850Z,99.50
2022-09-18T02:45:36.890Z,99.60
2022-09-18T02:47:07.781Z,99.70
2022-09-18T02:48:35.385Z,99.60
2022-09-18T02:49:47.139Z,99.60
2022-09-18T02:51:07.501Z,99.70
2022-09-18T02:52:29.761Z,99.80
2022-09-18T02:53:54.338Z,99.70
2022-09-18T02:55:04.554Z,99.70
2022-09-18T02:56:12.378Z,99.70
2022-09-18T02:57:37.123Z,99.70
2022-09-18T02:59:10.032Z,99.70
2022-09-18T03:00:15.384Z,99.70
2022-09-18T03:01:21.898Z,99.80
2022-09-18T03:02:26.180Z,99.70
2022-09-18T03:03:32.528Z,99.60
2022-09-18T03:04:40.250Z,99.60
2022-09-18T03:05:45.876Z,99.60
2022-09-18T03:06:47.801Z,99.60
2022-09-18T03:07:49.712Z,99.60
2022-09-18T03:08:51.916Z,99.60
2022-09-18T03:09:53.711Z,99.40
2022-09-18T03:10:55.589Z,99.40
2022-09-18T03:11:57.432Z,99.50
2022-09-18T03:13:01.286Z,99.40
2022-09-18T03:14:03.979Z,99.50
2022-09-18T03:15:06.873Z,99.50
2022-09-18T03:16:10.080Z,99.50
2022-09-18T03:17:12.067Z,99.50
2022-09-18T03:18:14.240Z,99.50
2022-09-18T03:19:17.116Z,99.50
2022-09-18T03:20:18.892Z,99.50
2022-09-18T03:21:26.642Z,99.50
2022-09-18T03:22:28.445Z,99.50
2022-09-18T03:23:30.578Z,99.50
2022-09-18T03:24:44.676Z,99.50
2022-09-18T03:25:52.942Z,99.50
2022-09-18T03:26:54.761Z,99.50
2022-09-18T03:27:59.033Z,99.50
2022-09-18T03:29:12.289Z,99.50
2022-09-18T03:30:17.502Z,99.50
2022-09-18T03:31:21.604Z,99.50
2022-09-18T03:32:24.325Z,99.40
2022-09-18T03:33:27.237Z,99.50
2022-09-18T03:34:30.235Z,99.40
2022-09-18T03:35:32.436Z,99.40
2022-09-18T03:36:34.475Z,99.40
2022-09-18T03:37:36.386Z,99.50
2022-09-18T03:38:41.758Z,99.40
2022-09-18T03:39:44.848Z,99.40
2022-09-18T03:40:48.609Z,99.30
2022-09-18T03:41:51.745Z,99.20
2022-09-18T03:42:53.687Z,99.20
2022-09-18T03:43:55.641Z,99.20
2022-09-18T03:44:57.630Z,99.30
2022-09-18T03:46:02.434Z,99.30
2022-09-18T03:47:04.580Z,99.30
2022-09-18T03:48:07.268Z,99.30
2022-09-18T03:49:10.077Z,99.40
2022-09-18T03:50:15.660Z,99.40
2022-09-18T03:51:20.199Z,99.30
2022-09-18T03:52:22.445Z,99.40
2022-09-18T03:53:29.849Z,99.30
2022-09-18T03:54:50.503Z,99.30
2022-09-18T03:56:30.585Z,99.30
2022-09-18T03:57:47.072Z,99.40
2022-09-18T03:58:56.832Z,99.50
2022-09-18T04:00:25.544Z,99.50
2022-09-18T04:01:32.887Z,99.30
2022-09-18T04:03:07.031Z,99.40
2022-09-18T04:04:14.869Z,99.60
2022-09-18T04:05:35.352Z,99.70
2022-09-18T04:06:55.692Z,99.80
2022-09-18T04:08:16.668Z,99.70
2022-09-18T04:09:34.392Z,99.60
2022-09-18T04:10:36.384Z,99.60
2022-09-18T04:11:39.829Z,99.60
2022-09-18T04:12:44.359Z,99.60
2022-09-18T04:13:53.992Z,99.60
2022-09-18T04:14:56.668Z,99.70
2022-09-18T04:15:59.052Z,99.70
2022-09-18T04:17:03.954Z,99.70
2022-09-18T04:18:06.152Z,99.70
2022-09-18T04:19:07.927Z,99.90
2022-09-18T04:20:10.329Z,99.90
2022-09-18T04:21:12.287Z,99.90
2022-09-18T04:22:13.998Z,99.90
2022-09-18T04:23:15.864Z,99.90
2022-09-18T04:24:17.617Z,99.90
2022-09-18T04:25:19.766Z,99.90
2022-09-18T04:26:22.126Z,99.90
2022-09-18T04:27:28.907Z,99.90
2022-09-18T04:28:30.771Z,99.80
2022-09-18T04:29:33.270Z,99.80
2022-09-18T04:30:37.386Z,99.80
2022-09-18T04:31:39.157Z,99.70
2022-09-18T04:32:46.117Z,99.60
2022-09-18T04:33:48.397Z,99.40
2022-09-18T04:34:50.932Z,99.30
2022-09-18T04:35:53.299Z,99.30
2022-09-18T04:36:55.112Z,99.40
2022-09-18T04:37:57.174Z,99.10
2022-09-18T04:38:59.278Z,98.90
2022-09-18T04:40:01.193Z,98.80
2022-09-18T04:41:05.864Z,98.70
2022-09-18T04:42:07.731Z,98.90
2022-09-18T04:43:11.590Z,98.90
2022-09-18T04:44:14.743Z,98.90
2022-09-18T04:45:17.433Z,99.40
2022-09-18T04:46:20.371Z,99.10
2022-09-18T04:47:22.204Z,99.20
2022-09-18T04:48:24.304Z,99.20
2022-09-18T04:49:27.167Z,99.40
2022-09-18T04:50:29.046Z,99.60
2022-09-18T04:51:50.050Z,99.90
2022-09-18T04:52:59.073Z,99.70
2022-09-18T04:54:02.026Z,99.60
2022-09-18T04:55:04.424Z,99.60
2022-09-18T04:56:07.573Z,99.70
2022-09-18T04:57:11.338Z,99.70
2022-09-18T04:58:15.141Z,99.70
2022-09-18T04:59:20.086Z,99.60
2022-09-18T05:00:22.715Z,99.60
2022-09-18T05:01:24.728Z,99.50
2022-09-18T05:02:26.687Z,99.50
2022-09-18T05:03:29.790Z,99.60
2022-09-18T05:04:32.165Z,99.70
2022-09-18T05:05:43.422Z,99.70
2022-09-18T05:06:46.550Z,99.70
2022-09-18T05:07:49.114Z,99.60
2022-09-18T05:08:52.573Z,99.50
2022-09-18T05:09:55.115Z,99.50
2022-09-18T05:10:56.894Z,99.60
2022-09-18T05:12:01.374Z,99.80
2022-09-18T05:13:03.164Z,99.90
2022-09-18T05:14:04.987Z,99.90
2022-09-18T05:15:09.273Z,99.90
2022-09-18T05:16:12.983Z,99.90
2022-09-18T05:17:17.191Z,99.90
2022-09-18T05:18:33.937Z,99.90
2022-09-18T05:19:37.243Z,99.90
2022-09-18T05:20:50.779Z,99.90
2022-09-18T05:21:52.828Z,99.90
2022-09-18T05:22:55.248Z,99.90
2022-09-18T05:23:57.196Z,99.90
2022-09-18T05:24:58.990Z,99.80
2022-09-18T05:26:02.121Z,99.50
2022-09-18T05:27:04.150Z,99.60
2022-09-18T05:28:06.153Z,99.60
2022-09-18T05:29:14.448Z,99.70
2022-09-18T05:30:16.632Z,99.70
2022-09-18T05:31:26.983Z,99.70
2022-09-18T05:32:28.850Z,99.70
2022-09-18T05:33:31.275Z,99.70
2022-09-18T05:34:33.562Z,99.70
2022-09-18T05:35:36.359Z,99.70
2022-09-18T05:36:38.261Z,99.80
2022-09-18T05:37:40.919Z,99.80
2022-09-18T05:38:43.893Z,99.90
2022-09-18T05:39:45.882Z,99.80
2022-09-18T05:40:48.938Z,99.90
2022-09-18T05:41:51.421Z,99.90
2022-09-18T05:42:53.636Z,99.90
2022-09-18T05:43:55.462Z,99.60
2022-09-18T05:45:01.647Z,99.60
2022-09-18T05:46:03.830Z,99.70
2022-09-18T05:47:20.229Z,99.90
2022-09-18T05:48:22.330Z,99.90
2022-09-18T05:49:24.383Z,99.90
2022-09-18T05:50:27.819Z,99.90
2022-09-18T05:51:29.592Z,99.90
2022-09-18T05:52:32.085Z,99.90
2022-09-18T05:53:35.157Z,99.80
2022-09-18T05:54:49.998Z,99.70
2022-09-18T05:55:51.776Z,99.60
2022-09-18T05:56:54.437Z,99.80
2022-09-18T05:57:57.775Z,99.80
2022-09-18T05:58:59.538Z,99.60
2022-09-18T06:00:01.416Z,99.50
2022-09-18T06:01:04.620Z,99.50
2022-09-18T06:02:32.649Z,99.80
2022-09-18T06:03:43.997Z,99.90
2022-09-18T06:04:48.007Z,99.90
2022-09-18T06:05:54.452Z,99.90
2022-09-18T06:06:57.091Z,99.90
2022-09-18T06:08:01.694Z,99.70
2022-09-18T06:09:04.567Z,99.60
2022-09-18T06:10:07.701Z,99.50
2022-09-18T06:11:09.654Z,99.60
2022-09-18T06:12:11.551Z,99.80
2022-09-18T06:13:16.033Z,99.70
2022-09-18T06:14:20.759Z,99.60
2022-09-18T06:15:22.966Z,99.80
2022-09-18T06:16:24.792Z,99.90
2022-09-18T06:17:31.993Z,99.90
2022-09-18T06:18:37.876Z,99.90
2022-09-18T06:19:40.674Z,99.80
2022-09-18T06:20:45.140Z,99.80
2022-09-18T06:21:47.441Z,99.90
2022-09-18T06:22:52.926Z,99.90
2022-09-18T06:24:07.171Z,99.90
2022-09-18T06:25:18.335Z,99.90
2022-09-18T06:26:20.089Z,99.90
2022-09-18T06:27:21.798Z,99.80
2022-09-18T06:28:23.601Z,99.70
2022-09-18T06:29:25.626Z,99.60
2022-09-18T06:30:37.498Z,99.60
2022-09-18T06:31:39.553Z,99.60
2022-09-18T06:32:44.292Z,99.70
2022-09-18T06:33:48.482Z,99.70
2022-09-18T06:34:50.335Z,99.70
2022-09-18T06:35:52.395Z,99.70
2022-09-18T06:37:05.137Z,99.70
2022-09-18T06:38:29.675Z,99.80
2022-09-18T06:39:31.473Z,99.90
2022-09-18T06:40:35.682Z,99.90
2022-09-18T06:41:54.820Z,99.90
2022-09-18T06:43:17.179Z,99.90
2022-09-18T06:44:36.865Z,99.90
2022-09-18T06:45:40.629Z,99.90
2022-09-18T06:46:42.550Z,99.90
2022-09-18T06:47:55.246Z,99.90
2022-09-18T06:48:58.964Z,99.90
2022-09-18T06:50:01.088Z,99.90
2022-09-18T06:51:03.981Z,99.90
2022-09-18T06:52:14.075Z,99.90
2022-09-18T06:53:15.885Z,99.90
2022-09-18T06:54:25.232Z,99.90
2022-09-18T06:55:27.109Z,99.90
2022-09-18T06:56:28.855Z,99.90
2022-09-18T06:57:31.177Z,99.80
2022-09-18T06:58:33.148Z,99.70
2022-09-18T06:59:35.118Z,99.90
2022-09-18T07:00:36.959Z,99.90
2022-09-18T07:01:38.785Z,99.90
2022-09-18T07:02:57.727Z,99.90
2022-09-18T07:04:18.211Z,99.70
2022-09-18T07:05:20.593Z,99.70
2022-09-18T07:06:22.710Z,99.70
2022-09-18T07:07:26.693Z,99.70
2022-09-18T07:08:28.635Z,99.70
2022-09-18T07:09:38.064Z,99.90
2022-09-18T07:10:49.296Z,99.90
2022-09-18T07:11:52.471Z,99.90
2022-09-18T07:12:57.867Z,99.90
2022-09-18T07:13:59.649Z,99.90
2022-09-18T07:15:01.487Z,99.90
2022-09-18T07:16:03.851Z,99.90
2022-09-18T07:17:14.116Z,99.90
2022-09-18T07:18:19.118Z,99.90
2022-09-18T07:19:22.294Z,99.90
2022-09-18T07:20:24.762Z,99.90
2022-09-18T07:21:26.808Z,99.90
2022-09-18T07:22:28.872Z,99.90
2022-09-18T07:23:33.146Z,99.90
2022-09-18T07:24:36.835Z,99.90
2022-09-18T07:25:40.046Z,99.90
2022-09-18T07:26:41.901Z,99.90
2022-09-18T07:27:44.794Z,99.90
2022-09-18T07:28:47.985Z,99.90
2022-09-18T07:29:55.560Z,99.90
2022-09-18T07:31:06.037Z,99.80
2022-09-18T07:32:09.269Z,99.90
2022-09-18T07:33:14.129Z,99.90
2022-09-18T07:34:22.175Z,99.90
2022-09-18T07:35:24.021Z,99.90
2022-09-18T07:36:27.281Z,99.90
2022-09-18T07:37:29.547Z,99.80
2022-09-18T07:38:54.377Z,99.80
2022-09-18T07:40:00.091Z,99.90
2022-09-18T07:41:20.945Z,99.90
2022-09-18T07:42:24.085Z,99.90
2022-09-18T07:43:27.765Z,99.80
2022-09-18T07:44:32.019Z,99.70
2022-09-18T07:45:34.995Z,99.90
2022-09-18T07:46:36.779Z,99.90
2022-09-18T07:47:40.772Z,99.90
2022-09-18T07:48:44.690Z,99.90
2022-09-18T07:49:54.512Z,99.90
2022-09-18T07:50:58.407Z,99.90
2022-09-18T07:52:01.965Z,99.90
2022-09-18T07:53:06.346Z,99.70
2022-09-18T07:54:12.637Z,99.70
2022-09-18T07:55:36.272Z,99.60
2022-09-18T07:56:38.668Z,99.90
2022-09-18T07:57:40.501Z,99.50
2022-09-18T07:59:02.635Z,99.40
2022-09-18T08:00:11.172Z,99.50
2022-09-18T08:01:19.593Z,99.60
2022-09-18T08:02:28.415Z,99.70
2022-09-18T08:03:30.896Z,99.60
2022-09-18T08:05:01.588Z,99.50
2022-09-18T08:06:14.690Z,99.60
2022-09-18T08:07:27.505Z,99.70
2022-09-18T08:08:46.586Z,99.80
2022-09-18T08:09:50.934Z,99.60
2022-09-18T08:11:11.639Z,99.50
2022-09-18T08:12:22.907Z,99.60
2022-09-18T08:13:43.384Z,99.70
2022-09-18T08:15:04.726Z,99.70
2022-09-18T08:16:21.709Z,99.60
2022-09-18T08:17:46.353Z,99.50
2022-09-18T08:19:14.250Z,99.30
2022-09-18T08:20:38.847Z,99.30
2022-09-18T08:22:10.122Z,99.20
2022-09-18T08:23:17.478Z,99.10
2022-09-18T08:24:19.361Z,98.80
2022-09-18T08:25:22.067Z,98.70
2022-09-18T08:26:24.716Z,98.70
2022-09-18T08:27:28.792Z,98.70
2022-09-18T08:28:31.197Z,98.60
2022-09-18T08:29:35.335Z,98.50
2022-09-18T08:30:41.123Z,98.60
2022-09-18T08:31:48.546Z,98.50
2022-09-18T08:32:51.287Z,98.40
2022-09-18T08:33:53.187Z,98.50
2022-09-18T08:34:56.571Z,98.40
2022-09-18T08:35:59.998Z,98.60
2022-09-18T08:37:10.609Z,98.60
2022-09-18T08:38:53.890Z,98.50
2022-09-18T08:40:09.004Z,98.70
2022-09-18T08:41:35.051Z,98.60
2022-09-18T08:43:02.668Z,98.80
2022-09-18T08:44:24.384Z,99.20
2022-09-18T08:45:53.376Z,99.50
2022-09-18T08:47:10.082Z,99.30
2022-09-18T08:48:26.834Z,99.40
2022-09-18T08:49:59.951Z,99.50
2022-09-18T08:51:14.125Z,99.30
2022-09-18T08:52:19.507Z,99.50
2022-09-18T08:53:36.334Z,99.40
2022-09-18T08:55:44.680Z,99.30
2022-09-18T08:56:54.310Z,99.30
2022-09-18T08:58:40.141Z,99.30
2022-09-18T08:59:51.940Z,99.20
2022-09-18T09:01:06.367Z,99.40
2022-09-18T09:02:13.713Z,99.10
2022-09-18T09:03:41.806Z,98.80
2022-09-18T09:04:44.069Z,98.60
2022-09-18T09:05:58.543Z,98.60
2022-09-18T09:07:25.190Z,98.40
2022-09-18T09:08:57.586Z,98.30
2022-09-18T09:10:29.804Z,98.70
2022-09-18T09:11:49.467Z,99.00
2022-09-18T09:13:06.224Z,99.20
2022-09-18T09:14:39.596Z,99.10
2022-09-18T09:15:54.210Z,99.20
2022-09-18T09:17:29.300Z,99.30
2022-09-18T09:19:01.570Z,99.20
2022-09-18T09:20:19.341Z,99.10
2022-09-18T09:21:24.504Z,98.70
2022-09-18T09:22:46.615Z,98.90
2022-09-18T09:24:05.751Z,98.90
2022-09-18T09:26:06.086Z,99.00
2022-09-18T09:27:35.766Z,99.30
2022-09-18T09:29:13.919Z,99.40
2022-09-18T09:30:36.446Z,99.30
2022-09-18T09:31:53.387Z,99.40
2022-09-18T09:33:23.994Z,99.40
2022-09-18T09:34:58.303Z,99.20
2022-09-18T09:36:15.823Z,99.40
2022-09-18T09:37:33.184Z,99.40
2022-09-18T09:39:06.500Z,99.50
2022-09-18T09:40:44.415Z,99.50
2022-09-18T09:42:07.937Z,99.50
2022-09-18T09:43:42.877Z,99.60
2022-09-18T09:44:44.765Z,99.90
2022-09-18T09:45:50.418Z,99.80
2022-09-18T09:47:28.347Z,99.40
2022-09-18T09:48:49.915Z,99.10
2022-09-18T09:50:06.779Z,98.90
2022-09-18T09:51:20.283Z,99.10
2022-09-18T09:52:27.849Z,99.10
2022-09-18T09:53:36.112Z,99.10
2022-09-18T09:54:38.817Z,98.70
2022-09-18T09:55:50.900Z,98.50
2022-09-18T09:57:16.134Z,98.50
2022-09-18T09:58:41.862Z,98.50
2022-09-18T10:00:13.092Z,98.60
2022-09-18T10:01:34.807Z,98.60
2022-09-18T10:02:49.040Z,99.00
2022-09-18T10:04:02.178Z,99.00
2022-09-18T10:05:22.850Z,99.00
2022-09-18T10:06:46.297Z,99.10
2022-09-18T10:08:01.361Z,99.30
2022-09-18T10:09:05.332Z,99.30
2022-09-18T10:10:19.603Z,99.50
2022-09-18T10:11:23.631Z,99.60
2022-09-18T10:12:51.885Z,99.60
2022-09-18T10:14:12.961Z,99.50
2022-09-18T10:15:47.638Z,99.40
2022-09-18T10:16:57.922Z,99.50
2022-09-18T10:18:04.889Z,99.60
2022-09-18T10:19:07.005Z,99.50
2022-09-18T10:20:18.267Z,98.50
2022-09-18T10:21:27.137Z,98.60
2022-09-18T10:22:29.867Z,98.60
2022-09-18T10:24:37.540Z,98.20
2022-09-18T10:27:34.005Z,98.30
2022-09-18T10:30:04.627Z,99.10
2022-09-18T10:31:50.442Z,98.80
2022-09-18T10:34:02.767Z,99.30
2022-09-18T10:38:20.774Z,99.00
2022-09-18T10:39:57.669Z,99.10
2022-09-18T10:41:47.324Z,98.80
2022-09-18T10:43:57.951Z,98.70
2022-09-18T10:49:50.002Z,99.00
2022-09-18T10:51:36.266Z,99.00
2022-09-18T10:56:23.260Z,98.80
2022-09-18T10:58:08.408Z,98.00
2022-09-18T11:02:30.734Z,97.90
2022-09-18T11:04:18.946Z,98.10
2022-09-18T11:05:59.453Z,98.10
2022-09-18T11:10:21.487Z,98.00
2022-09-18T11:12:55.433Z,98.00
2022-09-18T11:22:12.855Z,99.10
2022-09-18T11:27:56.693Z,98.80
2022-09-18T11:29:46.203Z,99.00
2022-09-18T11:32:57.588Z,99.20
2022-09-18T11:33:52.846Z,99.40
2022-09-18T11:35:29.396Z,99.50
2022-09-18T11:37:07.039Z,99.90
2022-09-18T11:38:37.241Z,99.70
2022-09-18T11:40:06.878Z,99.90
2022-09-18T11:42:10.860Z,99.80
2022-09-18T11:43:41.255Z,99.60
2022-09-18T11:44:44.888Z,99.80
2022-09-18T11:45:49.238Z,99.90
2022-09-18T11:47:09.064Z,99.90
2022-09-18T11:48:36.284Z,99.90
2022-09-18T11:49:43.137Z,99.70
2022-09-18T11:50:46.706Z,99.80
2022-09-18T11:51:57.835Z,99.70
2022-09-18T11:53:32.738Z,99.50
2022-09-18T11:54:55.284Z,99.60
2022-09-18T11:56:07.211Z,99.90
2022-09-18T11:57:37.876Z,99.40
2022-09-18T11:59:05.976Z,99.30
2022-09-18T12:00:21.102Z,99.60
2022-09-18T12:01:47.558Z,99.90
2022-09-18T12:03:12.078Z,99.90
2022-09-18T12:04:31.399Z,99.70
2022-09-18T12:05:38.994Z,99.70
2022-09-18T12:06:53.662Z,99.60
2022-09-18T12:08:19.301Z,99.50
2022-09-18T12:09:47.252Z,99.50
2022-09-18T12:10:57.884Z,99.80
2022-09-18T12:12:20.292Z,99.80
2022-09-18T12:13:45.703Z,99.50
2022-09-18T12:15:12.114Z,99.90
2022-09-18T12:16:24.967Z,99.70
2022-09-18T12:17:48.789Z,99.90
2022-09-18T12:19:04.097Z,99.90
2022-09-18T12:20:13.823Z,99.90
2022-09-18T12:21:22.146Z,99.90
2022-09-18T12:22:31.733Z,99.70
2022-09-18T12:23:36.673Z,99.40
2022-09-18T12:24:42.697Z,99.60
2022-09-18T12:26:09.393Z,99.60
2022-09-18T12:27:27.651Z,99.60
2022-09-18T12:28:45.741Z,99.90
2022-09-18T12:29:59.991Z,99.80
2022-09-18T12:31:28.849Z,99.80
2022-09-18T12:32:43.082Z,99.80
2022-09-18T12:34:12.703Z,99.90
2022-09-18T12:35:33.159Z,99.80
2022-09-18T12:37:12.746Z,99.80
2022-09-18T12:38:17.188Z,99.20
2022-09-18T12:39:39.589Z,99.50
2022-09-18T12:40:47.518Z,99.70
2022-09-18T12:42:24.648Z,99.60
2022-09-18T12:43:53.512Z,99.60
2022-09-18T12:45:06.896Z,99.70
2022-09-18T12:46:35.827Z,99.80
2022-09-18T12:48:04.887Z,99.90
2022-09-18T12:49:12.230Z,99.90
2022-09-18T12:50:40.789Z,99.90
2022-09-18T12:51:49.433Z,99.90
2022-09-18T12:53:11.481Z,99.90
2022-09-18T12:54:28.654Z,99.80
2022-09-18T12:55:52.885Z,99.50
2022-09-18T12:57:30.434Z,99.30
2022-09-18T12:58:44.897Z,99.30
2022-09-18T13:00:12.610Z,99.60
2022-09-18T13:01:37.951Z,99.70
2022-09-18T13:02:51.383Z,99.80
2022-09-18T13:04:02.312Z,99.60
2022-09-18T13:05:06.673Z,99.80
2022-09-18T13:06:14.479Z,99.90
2022-09-18T13:07:32.209Z,99.90
2022-09-18T13:08:44.761Z,99.90
2022-09-18T13:09:56.073Z,99.90
2022-09-18T13:11:04.803Z,99.20
2022-09-18T13:12:25.551Z,99.40
2022-09-18T13:13:49.743Z,99.40
2022-09-18T13:14:58.119Z,99.50
2022-09-18T13:16:08.156Z,99.30
2022-09-18T13:17:18.856Z,99.20
2022-09-18T13:18:45.240Z,99.20
2022-09-18T13:19:53.275Z,99.50
2022-09-18T13:20:58.971Z,99.70
2022-09-18T13:22:05.998Z,99.60
2022-09-18T13:23:39.616Z,99.40
2022-09-18T13:24:43.791Z,99.30
2022-09-18T13:25:47.922Z,99.50
2022-09-18T13:26:51.590Z,99.60
2022-09-18T13:27:55.639Z,99.90
2022-09-18T13:28:57.481Z,99.90
2022-09-18T13:30:00.179Z,99.90
2022-09-18T13:31:27.769Z,99.90
2022-09-18T13:32:41.606Z,99.70
2022-09-18T13:33:57.863Z,99.80
2022-09-18T13:35:14.346Z,99.80
2022-09-18T13:36:28.352Z,99.90
2022-09-18T13:37:30.985Z,99.90
2022-09-18T13:38:34.026Z,99.90
2022-09-18T13:39:50.771Z,99.90
2022-09-18T13:41:08.206Z,99.90
2022-09-18T13:42:10.060Z,99.90
2022-09-18T13:43:29.320Z,99.90
2022-09-18T13:44:36.422Z,99.80
2022-09-18T13:45:39.324Z,99.90
2022-09-18T13:46:41.831Z,99.70
2022-09-18T13:48:02.208Z,99.50
2022-09-18T13:49:26.560Z,99.30
2022-09-18T13:50:30.322Z,99.30
2022-09-18T13:51:36.203Z,99.30
2022-09-18T13:52:37.917Z,99.80
2022-09-18T13:53:42.187Z,99.90
2022-09-18T13:55:12.241Z,99.80
2022-09-18T13:56:16.587Z,99.80
2022-09-18T13:57:20.420Z,99.80
2022-09-18T13:58:31.347Z,99.70
2022-09-18T14:00:01.716Z,99.70
2022-09-18T14:01:43.288Z,99.70
2022-09-18T14:03:07.107Z,99.90
2022-09-18T14:04:39.535Z,99.90
2022-09-18T14:05:42.834Z,99.90
2022-09-18T14:06:45.793Z,99.70
2022-09-18T14:07:55.756Z,99.50
2022-09-18T14:08:57.608Z,99.70
2022-09-18T14:10:04.219Z,99.80
2022-09-18T14:11:15.929Z,99.90
2022-09-18T14:12:19.683Z,99.90
2022-09-18T14:13:24.533Z,99.80
2022-09-18T14:14:26.501Z,99.70
2022-09-18T14:15:28.389Z,99.50
2022-09-18T14:16:38.791Z,99.30
2022-09-18T14:17:41.228Z,99.30
2022-09-18T14:18:48.417Z,99.50
2022-09-18T14:20:06.266Z,99.80
2022-09-18T14:21:18.728Z,99.90
2022-09-18T14:22:30.060Z,99.90
2022-09-18T14:23:35.458Z,99.90
2022-09-18T14:24:56.308Z,99.80
2022-09-18T14:25:58.425Z,99.50
2022-09-18T14:27:22.024Z,99.50
2022-09-18T14:28:23.950Z,99.50
2022-09-18T14:29:32.380Z,99.50
2022-09-18T14:30:34.383Z,99.50
2022-09-18T14:31:47.214Z,99.60
2022-09-18T14:33:02.361Z,99.70
2022-09-18T14:34:27.240Z,99.70
2022-09-18T14:35:38.223Z,99.80
2022-09-18T14:36:48.701Z,99.90
2022-09-18T14:37:50.726Z,99.90
2022-09-18T14:38:52.681Z,99.90
2022-09-18T14:39:55.780Z,99.90
2022-09-18T14:41:23.160Z,99.90
2022-09-18T14:42:41.836Z,99.90
2022-09-18T14:43:49.803Z,99.90
2022-09-18T14:45:00.176Z,99.90
2022-09-18T14:46:02.670Z,99.90
2022-09-18T14:47:06.640Z,99.90
2022-09-18T14:48:27.074Z,99.90
2022-09-18T14:49:43.533Z,99.90
2022-09-18T14:50:56.971Z,99.90
2022-09-18T14:52:04.046Z,99.90
2022-09-18T14:53:24.621Z,99.90
2022-09-18T14:54:28.765Z,99.90
2022-09-18T14:55:42.598Z,99.90
2022-09-18T14:56:44.458Z,99.90
2022-09-18T14:57:52.495Z,99.90
2022-09-18T14:58:55.769Z,99.90
2022-09-18T15:00:00.351Z,99.90
2022-09-18T15:01:04.579Z,99.90
2022-09-18T15:02:22.851Z,99.90
2022-09-18T15:03:31.592Z,99.90
2022-09-18T15:04:33.635Z,99.90
2022-09-18T15:05:36.284Z,99.90
2022-09-18T15:06:39.557Z,99.90
2022-09-18T15:07:48.739Z,99.90
2022-09-18T15:08:54.491Z,99.90
2022-09-18T15:10:00.487Z,99.90
2022-09-18T15:11:02.549Z,99.90
2022-09-18T15:12:09.476Z,99.90
2022-09-18T15:13:14.789Z,99.90
2022-09-18T15:14:29.643Z,99.90
2022-09-18T15:15:34.713Z,99.90
2022-09-18T15:16:37.053Z,99.90
2022-09-18T15:17:38.989Z,99.90
2022-09-18T15:18:43.659Z,99.90
2022-09-18T15:20:09.332Z,99.90
2022-09-18T15:21:23.235Z,99.90
2022-09-18T15:22:26.090Z,99.90
2022-09-18T15:23:40.690Z,99.90
2022-09-18T15:24:42.578Z,99.90
2022-09-18T15:25:45.714Z,99.90
2022-09-18T15:26:55.596Z,99.90
2022-09-18T15:28:02.882Z,99.90
2022-09-18T15:29:06.459Z,99.90
2022-09-18T15:30:16.556Z,99.90
2022-09-18T15:31:20.655Z,99.90
2022-09-18T15:32:26.501Z,99.80
2022-09-18T15:33:28.534Z,99.70
2022-09-18T15:34:40.688Z,99.70
2022-09-18T15:35:44.993Z,99.90
2022-09-18T15:36:58.270Z,99.90
2022-09-18T15:38:07.552Z,99.90
2022-09-18T15:39:28.007Z,99.90
2022-09-18T15:40:36.569Z,99.90
2022-09-18T15:41:45.635Z,99.90
2022-09-18T15:43:03.718Z,99.90
2022-09-18T15:44:06.416Z,99.90
2022-09-18T15:45:08.259Z,99.90
2022-09-18T15:46:13.047Z,99.90
2022-09-18T15:47:29.001Z,99.90
2022-09-18T15:48:37.151Z,99.90
2022-09-18T15:49:39.015Z,99.90
2022-09-18T15:50:41.206Z,99.90
2022-09-18T15:51:43.120Z,99.90
2022-09-18T15:52:47.443Z,99.90
2022-09-18T15:54:02.393Z,99.90